Time;durP1;ratioP1;P1;durP2;ratioP2;P2;SDS_P1;SDS_P2;PMS_P1;PMS_P2;Temp;Humidity;BMP_temperature;BMP_pressure;BME280_temperature;BME280_humidity;BME280_pressure;Samples;Min_cycle;Max_cycle;Signal;HPM_P1;HPM_P2
2022/11/10 05:44:54;;;;;;;70.30;37.10;;;;;;;2.13;100.00;101210.95;1782027;79;21481;-44
2022/11/10 05:47:39;;;;;;;71.05;36.98;;;;;;;2.14;100.00;101214.00;1784885;79;20986;-44
2022/11/10 05:50:24;;;;;;;69.90;35.58;;;;;;;2.19;100.00;101219.40;1759702;79;21544;-44
2022/11/10 05:53:09;;;;;;;76.75;36.95;;;;;;;2.20;100.00;101226.33;1779841;78;21606;-37
2022/11/10 05:55:54;;;;;;;57.45;32.10;;;;;;;2.17;100.00;101224.50;1770899;79;21001;-44
2022/11/10 05:58:39;;;;;;;75.55;37.40;;;;;;;2.14;100.00;101230.78;1761209;79;21041;-40
2022/11/10 06:01:24;;;;;;;66.30;33.28;;;;;;;2.06;100.00;101226.55;1779050;79;21079;-37
2022/11/10 06:04:09;;;;;;;68.83;34.60;;;;;;;2.01;100.00;101236.17;1767550;78;21008;-37
2022/11/10 06:06:55;;;;;;;70.83;35.33;;;;;;;1.91;100.00;101233.94;1764821;79;21028;-44
2022/11/10 06:09:40;;;;;;;69.30;34.33;;;;;;;1.83;100.00;101230.98;1768997;79;21520;-43
2022/11/10 06:12:29;;;;;;;57.65;31.52;;;;;;;1.80;100.00;101233.43;1791160;78;21014;-37
2022/11/10 06:15:12;;;;;;;56.65;30.02;;;;;;;1.79;100.00;101225.18;1765238;78;21547;-45
2022/11/10 06:17:57;;;;;;;46.53;25.97;;;;;;;1.74;100.00;101232.72;1770957;79;21579;-46
2022/11/10 06:20:42;;;;;;;48.87;25.92;;;;;;;1.70;100.00;101233.36;1758965;78;21433;-35
2022/11/10 06:23:27;;;;;;;45.52;24.23;;;;;;;1.63;100.00;101236.45;1773695;79;21590;-40
2022/11/10 06:26:11;;;;;;;55.50;31.62;;;;;;;1.56;100.00;101235.22;1769055;79;21075;-43
2022/11/10 06:28:56;;;;;;;60.15;32.33;;;;;;;1.51;100.00;101236.70;1760671;78;21480;-47
2022/11/10 06:31:45;;;;;;;65.75;32.03;;;;;;;1.49;100.00;101237.02;1768823;78;21020;-37
2022/11/10 06:34:30;;;;;;;66.97;31.30;;;;;;;1.50;100.00;101239.19;1747340;79;21112;-43
2022/11/10 06:37:15;;;;;;;58.48;30.77;;;;;;;1.49;100.00;101241.29;1774894;79;21647;-43
2022/11/10 06:39:59;;;;;;;58.50;31.10;;;;;;;1.48;100.00;101241.70;1752448;79;21024;-48
2022/11/10 06:42:45;;;;;;;57.43;29.95;;;;;;;1.54;100.00;101236.84;1763778;79;21324;-37
2022/11/10 06:45:30;;;;;;;62.43;32.73;;;;;;;1.64;100.00;101242.48;1764399;79;21216;-36
2022/11/10 06:48:15;;;;;;;52.25;29.25;;;;;;;1.74;100.00;101239.54;1766783;79;21566;-47
2022/11/10 06:51:01;;;;;;;66.47;34.70;;;;;;;1.80;100.00;101242.05;1767115;79;21005;-47
2022/11/10 06:53:48;;;;;;;58.83;29.85;;;;;;;1.84;100.00;101243.95;1770698;78;22025;-47
2022/11/10 06:56:34;;;;;;;59.48;33.20;;;;;;;1.86;100.00;101242.77;1754062;79;21527;-47
2022/11/10 06:59:19;;;;;;;69.53;36.05;;;;;;;1.84;100.00;101237.91;1766050;79;21115;-37
2022/11/10 07:02:04;;;;;;;59.83;31.97;;;;;;;1.85;100.00;101247.01;1771592;78;21036;-48
2022/11/10 07:04:53;;;;;;;52.10;27.52;;;;;;;1.89;100.00;101246.77;1761633;78;21108;-37
2022/11/10 07:07:40;;;;;;;57.20;31.40;;;;;;;1.95;100.00;101246.19;1770686;78;21516;-48
2022/11/10 07:10:29;;;;;;;62.60;31.73;;;;;;;1.96;100.00;101242.39;1754724;79;21048;-38
2022/11/10 07:13:16;;;;;;;72.15;36.75;;;;;;;1.98;100.00;101243.78;1776870;79;21058;-44
2022/11/10 07:16:06;;;;;;;78.60;39.55;;;;;;;2.02;100.00;101239.22;1749503;79;21417;-46
2022/11/10 07:18:52;;;;;;;80.57;40.05;;;;;;;2.07;100.00;101240.34;1755118;79;21123;-40
2022/11/10 07:21:39;;;;;;;84.32;40.23;;;;;;;2.14;100.00;101246.28;1760207;78;21096;-45
2022/11/10 07:24:29;;;;;;;67.58;35.80;;;;;;;2.31;100.00;101245.81;1769486;79;21423;-45
2022/11/10 07:27:11;;;;;;;77.78;39.10;;;;;;;2.48;100.00;101250.49;1770453;79;21032;-45
2022/11/10 07:29:56;;;;;;;80.57;37.93;;;;;;;2.58;100.00;101250.13;1776833;79;21032;-38
2022/11/10 07:33:31;;;;;;;75.47;36.98;;;;;;;2.70;100.00;101248.11;1765954;78;20989;-45
2022/11/10 07:36:39;;;;;;;75.10;35.38;;;;;;;2.83;100.00;101243.09;1750877;79;21560;-46
2022/11/10 07:39:24;;;;;;;;;;;;;;;3.00;100.00;101249.05;1770714;79;21635;-38
2022/11/10 07:42:09;;;;;;;54.00;26.27;;;;;;;3.13;100.00;101245.81;1773133;79;20108;-38
2022/11/10 07:44:54;;;;;;;65.45;33.05;;;;;;;3.28;100.00;101236.95;1772080;79;21049;-38
2022/11/10 07:47:42;;;;;;;57.55;31.05;;;;;;;3.29;100.00;101240.89;1739526;79;21448;-46
2022/11/10 07:50:32;;;;;;;60.38;33.50;;;;;;;3.33;100.00;101244.51;1747026;79;21100;-49
2022/11/10 07:53:19;;;;;;;55.20;31.37;;;;;;;3.44;100.00;101241.58;1768333;79;21140;-38
2022/11/10 07:56:19;;;;;;;57.50;30.65;;;;;;;3.59;100.00;101243.05;1774671;79;21454;-39
2022/11/10 07:59:10;;;;;;;55.05;29.20;;;;;;;3.75;100.00;101244.18;1736897;78;21750;-44
2022/11/10 08:01:57;;;;;;;63.28;30.52;;;;;;;3.90;100.00;101237.07;1776154;79;21504;-37
2022/11/10 08:04:42;;;;;;;53.83;30.10;;;;;;;4.02;100.00;101241.88;1761204;79;21508;-38
2022/11/10 08:07:27;;;;;;;65.55;32.67;;;;;;;4.08;100.00;101243.83;1760792;79;21004;-37
2022/11/10 08:10:12;;;;;;;63.78;32.45;;;;;;;4.13;100.00;101246.20;1764197;79;21014;-36
2022/11/10 08:12:58;;;;;;;67.20;35.28;;;;;;;4.23;100.00;101249.23;1760406;79;21053;-38
2022/11/10 08:15:45;;;;;;;62.08;34.53;;;;;;;4.31;100.00;101252.54;1746161;78;21032;-46
2022/11/10 08:18:30;;;;;;;59.95;31.02;;;;;;;4.38;100.00;101254.13;1753464;79;21109;-39
2022/11/10 08:21:16;;;;;;;60.40;33.58;;;;;;;4.44;100.00;101258.27;1765852;79;21586;-45
2022/11/10 08:24:01;;;;;;;63.23;34.18;;;;;;;4.54;100.00;101260.82;1757304;80;21938;-44
2022/11/10 08:26:46;;;;;;;67.05;37.38;;;;;;;4.71;100.00;101249.82;1761655;79;21507;-38
2022/11/10 08:29:31;;;;;;;62.55;34.20;;;;;;;4.91;100.00;101251.87;1744445;80;21108;-38
2022/11/10 08:32:16;;;;;;;69.25;36.53;;;;;;;5.10;100.00;101256.91;1757056;79;21004;-39
2022/11/10 08:35:00;;;;;;;70.12;38.70;;;;;;;5.28;100.00;101255.44;1752547;79;21611;-45
2022/11/10 08:37:46;;;;;;;63.38;34.40;;;;;;;5.48;100.00;101249.23;1758901;79;21159;-46
2022/11/10 08:40:32;;;;;;;66.28;36.00;;;;;;;5.65;99.12;101248.53;1750193;79;21039;-38
2022/11/10 08:43:17;;;;;;;71.85;37.67;;;;;;;5.78;98.33;101245.94;1758998;80;21001;-37
2022/11/10 08:46:03;;;;;;;65.65;35.55;;;;;;;5.95;97.33;101242.66;1758793;79;21024;-45
2022/11/10 08:48:47;;;;;;;66.05;37.42;;;;;;;6.09;95.78;101234.51;1762741;79;21630;-46
2022/11/10 08:51:32;;;;;;;71.87;36.80;;;;;;;6.23;94.95;101243.16;1750453;79;20996;-38
2022/11/10 08:54:17;;;;;;;61.85;33.50;;;;;;;6.34;93.21;101238.77;1755948;79;21569;-39
2022/11/10 08:57:03;;;;;;;62.27;33.48;;;;;;;6.44;91.68;101232.58;1738703;80;21433;-38
2022/11/10 08:59:49;;;;;;;64.15;35.15;;;;;;;6.55;90.94;101228.57;1751382;80;21557;-39
2022/11/10 09:02:35;;;;;;;59.10;31.23;;;;;;;6.70;90.22;101221.67;1759521;79;21013;-38
2022/11/10 09:05:21;;;;;;;58.63;32.00;;;;;;;6.83;88.89;101234.20;1759009;79;21044;-38
2022/11/10 09:08:07;;;;;;;57.58;30.70;;;;;;;6.93;88.10;101229.32;1758907;79;21072;-40
2022/11/10 09:10:52;;;;;;;54.45;30.85;;;;;;;7.08;87.32;101219.80;1757457;79;21677;-45
2022/11/10 09:13:36;;;;;;;64.03;31.20;;;;;;;7.24;86.21;101221.09;1755363;80;21531;-46
2022/11/10 09:16:22;;;;;;;54.45;31.40;;;;;;;7.37;84.00;101222.34;1760666;80;21286;-38
2022/11/10 09:19:08;;;;;;;53.90;30.97;;;;;;;7.41;82.25;101220.25;1753718;80;21163;-46
2022/11/10 09:21:53;;;;;;;50.40;29.32;;;;;;;7.45;81.49;101212.58;1754967;80;21386;-45
2022/11/10 09:24:37;;;;;;;55.40;30.50;;;;;;;7.53;79.98;101219.28;1754492;80;21161;-45
2022/11/10 09:27:22;;;;;;;52.83;30.05;;;;;;;7.54;78.77;101211.95;1751458;80;21397;-45
2022/11/10 09:30:08;;;;;;;58.68;32.88;;;;;;;7.53;79.54;101214.50;1754862;81;21037;-37
2022/11/10 09:32:56;;;;;;;58.05;31.97;;;;;;;7.65;80.01;101216.13;1756213;80;21051;-39
2022/11/10 09:35:42;;;;;;;50.35;29.02;;;;;;;7.78;79.46;101214.75;1744326;80;21012;-46
2022/11/10 09:38:27;;;;;;;54.83;32.00;;;;;;;7.88;79.38;101210.20;1747637;80;21518;-39
2022/11/10 09:41:13;;;;;;;52.60;31.05;;;;;;;7.95;79.29;101208.24;1754730;80;21045;-45
2022/11/10 09:44:23;;;;;;;50.15;30.00;;;;;;;8.06;79.25;101209.78;1759371;79;21123;-39
2022/11/10 09:47:17;;;;;;;49.48;29.15;;;;;;;8.22;78.46;101209.31;1755975;80;21099;-40
2022/11/10 09:50:05;;;;;;;50.65;30.05;;;;;;;8.45;78.84;101207.28;1759152;79;21002;-39
2022/11/10 09:52:51;;;;;;;50.23;31.37;;;;;;;8.71;78.73;101203.55;1752471;79;21122;-46
2022/11/10 09:55:51;;;;;;;55.70;32.03;;;;;;;9.00;77.50;101200.25;1754216;79;21791;-39
2022/11/10 09:58:44;;;;;;;54.85;32.00;;;;;;;9.46;77.60;101202.47;1720263;80;21118;-45
2022/11/10 10:02:15;;;;;;;51.53;32.00;;;;;;;10.11;74.58;101192.28;1743623;79;21020;-47
2022/11/10 10:10:48;;;;;;;53.42;31.45;;;;;;;11.16;71.71;101188.09;1759191;79;21012;-38
2022/11/10 10:14:49;;;;;;;46.58;30.52;;;;;;;11.90;69.87;101181.90;1758534;79;21655;-39
2022/11/10 10:18:16;;;;;;;43.25;29.23;;;;;;;12.57;67.48;101181.48;1757896;79;21956;-46
2022/11/10 10:21:40;;;;;;;43.63;28.05;;;;;;;13.08;65.10;101169.48;1758811;79;20976;-37
2022/11/10 10:24:26;;;;;;;45.33;28.55;;;;;;;13.39;62.99;101174.42;1755792;79;21397;-38
2022/11/10 10:27:25;;;;;;;44.45;28.70;;;;;;;13.69;62.70;101168.36;1759319;79;21040;-37
2022/11/10 10:30:17;;;;;;;52.00;27.60;;;;;;;13.95;60.58;101170.55;1749403;79;21175;-37
2022/11/10 10:33:23;;;;;;;46.55;29.75;;;;;;;14.16;60.36;101167.48;1760274;79;21514;-45
2022/11/10 10:36:25;;;;;;;39.30;25.50;;;;;;;14.32;58.47;101163.52;1755780;79;21038;-46
2022/11/10 10:39:25;;;;;;;44.45;26.73;;;;;;;14.41;58.80;101163.92;1738618;80;21685;-46
2022/11/10 10:42:21;;;;;;;51.77;26.90;;;;;;;14.46;57.60;101154.27;1760505;79;21040;-47
2022/11/10 10:45:15;;;;;;;;;;;;;;;14.52;57.49;101154.72;1757769;79;21613;-39
2022/11/10 10:48:09;;;;;;;43.20;26.97;;;;;;;14.47;56.17;101162.63;1751331;80;20553;-39
2022/11/10 10:51:25;;;;;;;40.88;26.70;;;;;;;14.41;56.25;101159.10;1757913;79;21032;-46
2022/11/10 10:54:28;;;;;;;40.92;25.20;;;;;;;14.43;56.06;101153.38;1749488;80;21708;-46
2022/11/10 10:57:39;;;;;;;39.13;24.63;;;;;;;14.58;55.75;101147.68;1760798;79;21301;-40
2022/11/10 11:00:45;;;;;;;36.63;24.07;;;;;;;14.78;55.85;101154.63;1763468;80;21459;-46
2022/11/10 11:03:45;;;;;;;35.88;24.72;;;;;;;15.03;55.69;101150.16;1754561;80;21397;-47
2022/11/10 11:06:33;;;;;;;39.25;23.57;;;;;;;15.26;54.24;101156.63;1742810;80;20953;-39
2022/11/10 11:09:25;;;;;;;34.98;22.95;;;;;;;15.37;53.98;101149.53;1754530;79;21944;-40
2022/11/10 11:12:37;;;;;;;33.90;23.47;;;;;;;15.54;53.45;101146.75;1741394;79;21561;-38
2022/11/10 11:15:27;;;;;;;35.88;22.70;;;;;;;15.42;52.13;101134.53;1718619;79;20968;-38
2022/11/10 11:18:20;;;;;;;30.75;20.65;;;;;;;15.21;53.46;101130.73;1757632;79;21128;-37
2022/11/10 11:21:29;;;;;;;33.10;22.55;;;;;;;15.16;53.37;101136.89;1752355;79;21550;-45
2022/11/10 11:24:20;;;;;;;29.98;20.17;;;;;;;15.27;52.86;101134.20;1755119;79;21088;-47
2022/11/10 11:27:19;;;;;;;33.78;19.27;;;;;;;15.17;52.21;101131.18;1755015;79;21063;-48
2022/11/10 11:30:12;;;;;;;31.93;19.00;;;;;;;14.91;52.65;101132.64;1752095;80;20962;-45
2022/11/10 11:33:22;;;;;;;31.10;18.55;;;;;;;14.88;52.37;101124.73;1751904;80;21952;-46
2022/11/10 11:36:50;;;;;;;25.65;19.48;;;;;;;14.93;52.17;101126.91;1759377;80;21484;-49
2022/11/10 11:40:09;;;;;;;26.62;18.57;;;;;;;14.86;51.81;101132.66;1756863;79;21095;-46
2022/11/10 11:43:09;;;;;;;25.62;19.15;;;;;;;14.76;51.56;101132.70;1745641;80;21318;-47
2022/11/10 11:46:32;;;;;;;25.60;18.05;;;;;;;14.57;51.97;101135.40;1751858;79;21060;-49
2022/11/10 11:50:01;;;;;;;22.75;16.85;;;;;;;14.39;51.92;101135.42;1754577;79;21058;-46
2022/11/10 11:53:19;;;;;;;28.65;17.77;;;;;;;14.39;52.46;101136.73;1755748;79;21714;-39
2022/11/10 11:56:25;;;;;;;23.80;17.42;;;;;;;14.46;52.06;101134.96;1756045;79;21641;-47
2022/11/10 11:59:28;;;;;;;26.90;16.57;;;;;;;14.59;51.04;101135.39;1762065;79;21389;-46
2022/11/10 12:02:53;;;;;;;22.37;16.43;;;;;;;14.55;51.10;101137.17;1754754;79;21028;-46
2022/11/10 12:05:57;;;;;;;21.65;16.10;;;;;;;14.64;50.68;101133.17;1759248;80;21514;-49
2022/11/10 12:08:53;;;;;;;28.02;17.25;;;;;;;14.78;50.62;101130.92;1682002;83;21594;-46
2022/11/10 12:12:20;;;;;;;27.05;16.95;;;;;;;14.89;49.58;101132.63;1671287;83;21039;-47
2022/11/10 12:15:30;;;;;;;28.15;17.40;;;;;;;14.80;49.53;101137.08;1677386;84;21564;-46
2022/11/10 12:18:42;;;;;;;23.35;15.98;;;;;;;14.69;49.15;101141.06;1687548;82;21080;-38
2022/11/10 12:22:05;;;;;;;20.40;14.40;;;;;;;14.64;49.61;101146.78;1678705;83;21811;-38
2022/11/10 12:25:11;;;;;;;21.97;15.10;;;;;;;14.58;49.26;101136.27;1679185;83;21040;-39
2022/11/10 12:28:04;;;;;;;24.12;15.15;;;;;;;14.14;50.01;101150.36;1662978;83;21014;-38
2022/11/10 12:30:50;;;;;;;25.97;15.18;;;;;;;13.79;50.75;101150.38;1675282;83;21990;-39
2022/11/10 12:34:02;;;;;;;19.27;14.33;;;;;;;13.51;51.32;101150.78;1670935;84;21138;-39
2022/11/10 12:36:47;;;;;;;25.52;14.63;;;;;;;13.08;51.91;101155.03;1673746;84;21101;-38
2022/11/10 12:40:02;;;;;;;24.35;13.98;;;;;;;12.51;53.17;101156.95;1680932;83;21639;-38
2022/11/10 12:43:01;;;;;;;23.12;15.43;;;;;;;12.16;54.10;101155.42;1668222;84;20983;-40
2022/11/10 12:45:52;;;;;;;18.17;13.55;;;;;;;11.89;54.81;101154.80;1742877;80;20982;-46
2022/11/10 12:48:51;;;;;;;21.70;15.00;;;;;;;11.82;55.45;101156.03;1758910;79;21084;-46
2022/11/10 12:51:53;;;;;;;20.05;13.75;;;;;;;11.91;55.67;101158.73;1763932;79;20944;-47
2022/11/10 12:54:38;;;;;;;24.27;14.95;;;;;;;12.10;54.82;101159.31;1761571;79;21078;-47
2022/11/10 12:57:25;;;;;;;24.72;15.05;;;;;;;12.04;54.47;101167.14;1764307;79;21116;-41
2022/11/10 13:00:26;;;;;;;26.23;14.30;;;;;;;11.79;54.78;101166.03;1770251;80;20999;-40
2022/11/10 13:03:31;;;;;;;23.38;13.55;;;;;;;11.43;55.55;101170.06;1765989;80;21058;-38
2022/11/10 13:06:34;;;;;;;37.42;14.83;;;;;;;11.03;56.91;101166.13;1769825;80;21543;-38
2022/11/10 13:09:34;;;;;;;27.05;15.15;;;;;;;10.74;57.88;101160.96;1762236;80;21006;-39
2022/11/10 13:12:21;;;;;;;21.35;14.18;;;;;;;10.44;58.48;101161.42;1749406;80;21056;-41
2022/11/10 13:15:40;;;;;;;19.80;13.13;;;;;;;10.09;59.48;101160.01;1771868;79;20953;-39
2022/11/10 13:18:35;;;;;;;20.12;13.85;;;;;;;9.81;60.40;101158.67;1761707;80;21044;-38
2022/11/10 13:21:40;;;;;;;;;;;;;;;9.52;61.39;101166.44;1759682;80;22071;-48
2022/11/10 13:24:35;;;;;;;35.43;19.27;;;;;;;9.29;62.86;101155.14;1755072;79;20169;-39
2022/11/10 13:27:46;;;;;;;31.15;18.55;;;;;;;9.09;64.28;101161.69;1760003;80;21507;-38
